Decoded Metar for KUUU (NEWPORT in RI, USA) (IATA:UUU) | Meteo·Mobile Aviation Weather
aviador You're here:

KUUU Decoded Metar

NEWPORT in RI, USA
Report Time2018-09-18 21:10:00
UTC Time2018-09-18 21:57:29
Flight Rules ifr IFR
Wind360° at 06 kt
W.Decomp.*RWY 04: 5.4 kt HW 2.5 kt LCW
RWY 34: 4.9 kt HW 3.4 kt RCW
Visibility9999 m
Phenomena:Light Rain
Clouds:Broken 006 Hf
Broken 014 Hf
Overcast 022 Hf
Expected CloudBase > 400 ft AGL from Temp-Dew spread
Ceiling600 ft
Temp22°C (ISA +7)
Dew Point21°C (94% RH)
QNH1007 hPa
Density Alt1,552 ft
Elevation167 ft
Report Wrong Elevation
Raw Report
KUUU 182110Z AUTO 36006KT 7SM -RA BKN006 BKN014 OVC022 22/21 A2974
RMK AO2 LTG DSNT SE AND S P0001 T02170211=

Extra information for KUUU:More info

Metar Taf Metar & Taf Last 4 Metars F.Rules Stats Wind Profile Meteogram Temp Stats Airport Information Weather charts Add Link Nearby VenuesMetar ALERT Operation Metar Decoded Social comments

AIRNAV info for KUUU